Hasima, TX

1:06 PM CDT on March 27, 2017 (GMT -0500)
MUR062 | | Change Station

Elev 39 ft 29.03 °N, 95.79 °W | Updated 6 hours ago

Mostly Cloudy
Mostly Cloudy
73.0 °F
Feels Like 73.0 °F
N
-
Wind Variable Wind from North

Today
High -- | Low -- °F
--% Chance of Precip.
Yesterday
High -- | Low -- °F
Precip. -- in
Pressure 29.91 in
Visibility 10.0 miles
Clouds Mostly Cloudy 2400 ft
Mostly Cloudy 3000 ft
Dew Point Not available.
Humidity Not available.
Rainfall in
Snow Depth Not available.
7:18 AM 7:38 PM
Waning Crescent, 0% visible
METAR KBYY 271755Z AUTO 16009G16KT 10SM BKN024 BKN030 27/21 A2991 RMK AO2 T02750211
Pressure 29.91 in
Visibility 10.0 miles
Clouds Mostly Cloudy 2400 ft
Mostly Cloudy 3000 ft
Dew Point Not available.
Humidity Not available.
Rainfall in
Snow Depth Not available.
7:18 AM 7:38 PM
Waning Crescent, 0% visible
METAR KBYY 271755Z AUTO 16009G16KT 10SM BKN024 BKN030 27/21 A2991 RMK AO2 T02750211

Get Severe Weather Alerts

Thanks for signing up!

Be on the lookout for a verification email in your inbox.

You'll start receiving the daily forecast at 8 AM.

×

10-Day Weather Forecast

Almanac

Astronomy

Mar. 27, 2017 Rise Set
Actual Time
Civil Twilight
Nautical Twilight
Astronomical Twilight
Moon
Length of Visible Light
Length of Day
Tomorrow will be .
, % of the Moon is Illuminated

Today's Extremes

State Highs State Lows

Community

WunderPhotos

Upload Photos

1,962,540 photos uploaded!

WunderBlog® & News

Nearby

Air Quality

  Air Quality AQ Index Pollutant
Not available.

Snow Depth

Station Depth Elevation

Earthquake Activity

City Distance Mag. Time & Date
Minimum magnitude displayed is 2.5.

Earthquake Activity

City Distance Mag. Time & Date
Minimum magnitude displayed is 2.5.

Coastal Water Temperatures

Place Temperature

Stations

Nearby Weather Stations

Station Location Temp. Windchill Dew Point Humidity Wind Precip. Elev Updated Type
                   

Watches & Warnings

There are currently no watches in effect.